sensor_id;sensor_type;location;lat;lon;timestamp;temperature;humidity
16970;DHT22;8601;48.718;8.992;2023-08-24T00:01:17;20.10;97.30
16970;DHT22;8601;48.718;8.992;2023-08-24T00:03:44;20.00;97.30
16970;DHT22;8601;48.718;8.992;2023-08-24T00:06:11;20.00;97.90
16970;DHT22;8601;48.718;8.992;2023-08-24T00:08:38;20.00;97.70
16970;DHT22;8601;48.718;8.992;2023-08-24T00:11:05;20.00;97.90
16970;DHT22;8601;48.718;8.992;2023-08-24T00:13:34;20.00;97.90
16970;DHT22;8601;48.718;8.992;2023-08-24T00:16:01;20.00;97.60
16970;DHT22;8601;48.718;8.992;2023-08-24T00:18:29;20.00;98.10
16970;DHT22;8601;48.718;8.992;2023-08-24T00:20:56;19.90;98.40
16970;DHT22;8601;48.718;8.992;2023-08-24T00:23:24;19.70;98.50
16970;DHT22;8601;48.718;8.992;2023-08-24T00:25:51;19.70;98.60
16970;DHT22;8601;48.718;8.992;2023-08-24T00:28:18;19.80;98.60
16970;DHT22;8601;48.718;8.992;2023-08-24T00:30:47;19.80;98.70
16970;DHT22;8601;48.718;8.992;2023-08-24T00:33:14;19.90;99.00
16970;DHT22;8601;48.718;8.992;2023-08-24T00:35:41;20.00;98.70
16970;DHT22;8601;48.718;8.992;2023-08-24T00:38:08;19.80;98.70
16970;DHT22;8601;48.718;8.992;2023-08-24T00:40:34;19.80;98.90
16970;DHT22;8601;48.718;8.992;2023-08-24T00:43:02;19.70;99.10
16970;DHT22;8601;48.718;8.992;2023-08-24T00:45:30;19.70;99.30
16970;DHT22;8601;48.718;8.992;2023-08-24T00:48:00;19.60;99.40
16970;DHT22;8601;48.718;8.992;2023-08-24T00:50:28;19.60;99.90
16970;DHT22;8601;48.718;8.992;2023-08-24T00:52:55;19.60;99.90
16970;DHT22;8601;48.718;8.992;2023-08-24T00:55:22;19.70;99.90
16970;DHT22;8601;48.718;8.992;2023-08-24T00:57:50;19.70;99.90
16970;DHT22;8601;48.718;8.992;2023-08-24T01:00:18;19.60;99.90
16970;DHT22;8601;48.718;8.992;2023-08-24T01:02:44;19.60;99.90
16970;DHT22;8601;48.718;8.992;2023-08-24T01:05:13;19.70;99.90
16970;DHT22;8601;48.718;8.992;2023-08-24T01:07:40;19.60;99.70
16970;DHT22;8601;48.718;8.992;2023-08-24T01:10:09;19.60;99.90
16970;DHT22;8601;48.718;8.992;2023-08-24T01:12:43;19.60;99.90
16970;DHT22;8601;48.718;8.992;2023-08-24T01:15:17;19.60;99.90
16970;DHT22;8601;48.718;8.992;2023-08-24T01:17:46;19.60;99.90
16970;DHT22;8601;48.718;8.992;2023-08-24T01:20:16;19.50;99.90
16970;DHT22;8601;48.718;8.992;2023-08-24T01:22:49;19.40;99.90
16970;DHT22;8601;48.718;8.992;2023-08-24T01:25:24;19.40;99.90
16970;DHT22;8601;48.718;8.992;2023-08-24T01:28:01;19.40;99.90
16970;DHT22;8601;48.718;8.992;2023-08-24T01:30:29;19.40;99.90
16970;DHT22;8601;48.718;8.992;2023-08-24T01:32:57;19.40;99.90
16970;DHT22;8601;48.718;8.992;2023-08-24T01:35:24;19.40;99.90
16970;DHT22;8601;48.718;8.992;2023-08-24T01:37:51;19.40;99.90
16970;DHT22;8601;48.718;8.992;2023-08-24T01:40:23;19.40;99.90
16970;DHT22;8601;48.718;8.992;2023-08-24T01:42:56;19.30;99.90
16970;DHT22;8601;48.718;8.992;2023-08-24T01:45:29;19.30;99.90
16970;DHT22;8601;48.718;8.992;2023-08-24T01:48:00;19.30;99.90
16970;DHT22;8601;48.718;8.992;2023-08-24T01:50:29;19.30;99.90
16970;DHT22;8601;48.718;8.992;2023-08-24T01:52:56;19.30;99.90
16970;DHT22;8601;48.718;8.992;2023-08-24T01:55:23;19.30;99.90
16970;DHT22;8601;48.718;8.992;2023-08-24T01:57:50;19.30;99.90
16970;DHT22;8601;48.718;8.992;2023-08-24T02:00:16;19.30;99.90
16970;DHT22;8601;48.718;8.992;2023-08-24T02:02:44;19.30;99.90
16970;DHT22;8601;48.718;8.992;2023-08-24T02:05:11;19.30;99.90
16970;DHT22;8601;48.718;8.992;2023-08-24T02:07:39;19.30;99.90
16970;DHT22;8601;48.718;8.992;2023-08-24T02:10:06;19.20;99.90
16970;DHT22;8601;48.718;8.992;2023-08-24T02:12:33;19.10;99.90
16970;DHT22;8601;48.718;8.992;2023-08-24T02:15:00;19.10;99.90
16970;DHT22;8601;48.718;8.992;2023-08-24T02:17:28;19.10;99.90
16970;DHT22;8601;48.718;8.992;2023-08-24T02:19:56;19.10;99.90
16970;DHT22;8601;48.718;8.992;2023-08-24T02:22:23;19.10;99.90
16970;DHT22;8601;48.718;8.992;2023-08-24T02:24:50;19.10;99.90
16970;DHT22;8601;48.718;8.992;2023-08-24T02:27:18;19.10;99.90
16970;DHT22;8601;48.718;8.992;2023-08-24T02:29:44;19.00;99.90
16970;DHT22;8601;48.718;8.992;2023-08-24T02:32:11;19.00;99.90
16970;DHT22;8601;48.718;8.992;2023-08-24T02:34:38;19.00;99.90
16970;DHT22;8601;48.718;8.992;2023-08-24T02:37:07;19.00;99.90
16970;DHT22;8601;48.718;8.992;2023-08-24T02:39:34;19.10;99.90
16970;DHT22;8601;48.718;8.992;2023-08-24T02:42:01;19.10;99.90
16970;DHT22;8601;48.718;8.992;2023-08-24T02:44:28;19.10;99.90
16970;DHT22;8601;48.718;8.992;2023-08-24T02:46:54;19.20;99.90
16970;DHT22;8601;48.718;8.992;2023-08-24T02:49:21;19.10;99.90
16970;DHT22;8601;48.718;8.992;2023-08-24T02:51:48;19.10;99.90
16970;DHT22;8601;48.718;8.992;2023-08-24T02:54:17;19.00;99.90
16970;DHT22;8601;48.718;8.992;2023-08-24T02:56:44;19.10;99.90
16970;DHT22;8601;48.718;8.992;2023-08-24T02:59:11;19.10;99.90
16970;DHT22;8601;48.718;8.992;2023-08-24T03:01:38;19.10;99.90
16970;DHT22;8601;48.718;8.992;2023-08-24T03:04:07;19.00;99.90
16970;DHT22;8601;48.718;8.992;2023-08-24T03:06:34;19.10;99.90
16970;DHT22;8601;48.718;8.992;2023-08-24T03:09:01;19.10;99.90
16970;DHT22;8601;48.718;8.992;2023-08-24T03:11:31;19.10;99.90
16970;DHT22;8601;48.718;8.992;2023-08-24T03:13:58;19.00;99.90
16970;DHT22;8601;48.718;8.992;2023-08-24T03:16:25;19.00;99.90
16970;DHT22;8601;48.718;8.992;2023-08-24T03:18:52;19.00;99.90
16970;DHT22;8601;48.718;8.992;2023-08-24T03:21:19;19.00;99.90
16970;DHT22;8601;48.718;8.992;2023-08-24T03:23:46;18.90;99.90
16970;DHT22;8601;48.718;8.992;2023-08-24T03:26:13;18.90;99.90
16970;DHT22;8601;48.718;8.992;2023-08-24T03:28:42;18.90;99.90
16970;DHT22;8601;48.718;8.992;2023-08-24T03:31:09;18.90;99.90
16970;DHT22;8601;48.718;8.992;2023-08-24T03:33:36;19.00;99.90
16970;DHT22;8601;48.718;8.992;2023-08-24T03:36:03;19.10;99.90
16970;DHT22;8601;48.718;8.992;2023-08-24T03:38:30;19.10;99.90
16970;DHT22;8601;48.718;8.992;2023-08-24T03:41:00;19.00;99.90
16970;DHT22;8601;48.718;8.992;2023-08-24T03:43:31;19.00;99.90
16970;DHT22;8601;48.718;8.992;2023-08-24T03:45:59;19.00;99.90
16970;DHT22;8601;48.718;8.992;2023-08-24T03:48:26;19.10;99.90
16970;DHT22;8601;48.718;8.992;2023-08-24T03:50:54;19.00;99.90
16970;DHT22;8601;48.718;8.992;2023-08-24T03:53:21;19.10;99.90
16970;DHT22;8601;48.718;8.992;2023-08-24T03:55:49;19.00;99.90
16970;DHT22;8601;48.718;8.992;2023-08-24T03:58:16;19.00;99.90
16970;DHT22;8601;48.718;8.992;2023-08-24T04:00:43;19.10;99.90
16970;DHT22;8601;48.718;8.992;2023-08-24T04:03:11;19.00;99.90
16970;DHT22;8601;48.718;8.992;2023-08-24T04:05:39;19.00;99.90
16970;DHT22;8601;48.718;8.992;2023-08-24T04:08:06;19.00;99.90
16970;DHT22;8601;48.718;8.992;2023-08-24T04:10:33;19.00;99.90
16970;DHT22;8601;48.718;8.992;2023-08-24T04:13:00;19.10;99.90
16970;DHT22;8601;48.718;8.992;2023-08-24T04:15:27;19.10;99.90
16970;DHT22;8601;48.718;8.992;2023-08-24T04:17:54;19.10;99.90
16970;DHT22;8601;48.718;8.992;2023-08-24T04:20:23;19.20;99.90
16970;DHT22;8601;48.718;8.992;2023-08-24T04:22:50;19.10;99.90
16970;DHT22;8601;48.718;8.992;2023-08-24T04:25:17;19.10;99.90
16970;DHT22;8601;48.718;8.992;2023-08-24T04:27:44;19.00;99.90
16970;DHT22;8601;48.718;8.992;2023-08-24T04:30:11;19.10;99.90
16970;DHT22;8601;48.718;8.992;2023-08-24T04:32:39;19.00;99.90
16970;DHT22;8601;48.718;8.992;2023-08-24T04:35:07;19.10;99.90
16970;DHT22;8601;48.718;8.992;2023-08-24T04:37:35;19.00;99.90
16970;DHT22;8601;48.718;8.992;2023-08-24T04:40:03;19.00;99.90
16970;DHT22;8601;48.718;8.992;2023-08-24T04:42:32;19.00;99.90
16970;DHT22;8601;48.718;8.992;2023-08-24T04:44:59;19.10;99.90
16970;DHT22;8601;48.718;8.992;2023-08-24T04:47:26;19.20;99.90
16970;DHT22;8601;48.718;8.992;2023-08-24T04:49:53;19.20;99.90
16970;DHT22;8601;48.718;8.992;2023-08-24T04:52:20;19.10;99.90
16970;DHT22;8601;48.718;8.992;2023-08-24T04:54:48;19.10;99.90
16970;DHT22;8601;48.718;8.992;2023-08-24T04:57:16;19.10;99.90
16970;DHT22;8601;48.718;8.992;2023-08-24T04:59:43;19.10;99.90
16970;DHT22;8601;48.718;8.992;2023-08-24T05:02:10;19.20;99.90
16970;DHT22;8601;48.718;8.992;2023-08-24T05:04:36;19.20;99.90
16970;DHT22;8601;48.718;8.992;2023-08-24T05:07:03;19.30;99.90
16970;DHT22;8601;48.718;8.992;2023-08-24T05:09:31;19.30;99.90
16970;DHT22;8601;48.718;8.992;2023-08-24T05:11:59;19.30;99.90
16970;DHT22;8601;48.718;8.992;2023-08-24T05:14:25;19.20;99.90
16970;DHT22;8601;48.718;8.992;2023-08-24T05:16:52;19.20;99.90
16970;DHT22;8601;48.718;8.992;2023-08-24T05:19:19;19.20;99.90
16970;DHT22;8601;48.718;8.992;2023-08-24T05:21:46;19.20;99.90
16970;DHT22;8601;48.718;8.992;2023-08-24T05:24:13;19.20;99.90
16970;DHT22;8601;48.718;8.992;2023-08-24T05:26:39;19.20;99.90
16970;DHT22;8601;48.718;8.992;2023-08-24T05:29:08;19.50;99.90
16970;DHT22;8601;48.718;8.992;2023-08-24T05:31:34;19.70;99.90
16970;DHT22;8601;48.718;8.992;2023-08-24T05:34:02;19.50;99.90
16970;DHT22;8601;48.718;8.992;2023-08-24T05:36:28;19.50;99.90
16970;DHT22;8601;48.718;8.992;2023-08-24T05:38:56;19.50;99.90
16970;DHT22;8601;48.718;8.992;2023-08-24T05:41:22;19.50;99.90
16970;DHT22;8601;48.718;8.992;2023-08-24T05:43:49;19.50;99.90
16970;DHT22;8601;48.718;8.992;2023-08-24T05:46:19;19.50;99.90
16970;DHT22;8601;48.718;8.992;2023-08-24T05:48:46;19.50;99.90
16970;DHT22;8601;48.718;8.992;2023-08-24T05:51:13;19.50;99.90
16970;DHT22;8601;48.718;8.992;2023-08-24T05:53:40;19.60;99.90
16970;DHT22;8601;48.718;8.992;2023-08-24T05:56:07;19.50;99.90
16970;DHT22;8601;48.718;8.992;2023-08-24T05:58:34;19.60;99.90
16970;DHT22;8601;48.718;8.992;2023-08-24T06:01:01;20.10;99.90
16970;DHT22;8601;48.718;8.992;2023-08-24T06:03:29;20.00;99.90
16970;DHT22;8601;48.718;8.992;2023-08-24T06:06:01;20.50;99.90
16970;DHT22;8601;48.718;8.992;2023-08-24T06:08:29;20.10;99.90
16970;DHT22;8601;48.718;8.992;2023-08-24T06:10:57;19.90;99.90
16970;DHT22;8601;48.718;8.992;2023-08-24T06:13:24;19.90;99.90
16970;DHT22;8601;48.718;8.992;2023-08-24T06:15:51;19.90;99.90
16970;DHT22;8601;48.718;8.992;2023-08-24T06:18:18;19.80;99.90
16970;DHT22;8601;48.718;8.992;2023-08-24T06:20:46;19.90;99.90
16970;DHT22;8601;48.718;8.992;2023-08-24T06:23:14;19.90;99.90
16970;DHT22;8601;48.718;8.992;2023-08-24T06:25:41;19.90;99.90
16970;DHT22;8601;48.718;8.992;2023-08-24T06:28:08;19.90;99.90
16970;DHT22;8601;48.718;8.992;2023-08-24T06:30:37;20.00;99.90
16970;DHT22;8601;48.718;8.992;2023-08-24T06:33:05;20.00;99.90
16970;DHT22;8601;48.718;8.992;2023-08-24T06:35:32;20.10;99.90
16970;DHT22;8601;48.718;8.992;2023-08-24T06:38:00;20.10;99.90
16970;DHT22;8601;48.718;8.992;2023-08-24T06:40:28;20.10;99.90
16970;DHT22;8601;48.718;8.992;2023-08-24T06:42:55;20.20;99.90
16970;DHT22;8601;48.718;8.992;2023-08-24T06:45:22;20.20;99.90
16970;DHT22;8601;48.718;8.992;2023-08-24T06:47:49;20.30;99.90
16970;DHT22;8601;48.718;8.992;2023-08-24T06:50:17;20.30;99.90
16970;DHT22;8601;48.718;8.992;2023-08-24T06:52:44;20.30;99.90
16970;DHT22;8601;48.718;8.992;2023-08-24T06:55:13;20.30;99.90
16970;DHT22;8601;48.718;8.992;2023-08-24T06:57:40;20.30;99.90
16970;DHT22;8601;48.718;8.992;2023-08-24T07:00:07;20.40;99.90
16970;DHT22;8601;48.718;8.992;2023-08-24T07:02:35;20.50;99.90
16970;DHT22;8601;48.718;8.992;2023-08-24T07:05:02;20.60;99.90
16970;DHT22;8601;48.718;8.992;2023-08-24T07:07:31;20.70;99.90
16970;DHT22;8601;48.718;8.992;2023-08-24T07:09:58;20.80;99.90
16970;DHT22;8601;48.718;8.992;2023-08-24T07:12:26;20.90;99.90
16970;DHT22;8601;48.718;8.992;2023-08-24T07:14:53;20.70;99.90
16970;DHT22;8601;48.718;8.992;2023-08-24T07:17:20;20.80;99.90
16970;DHT22;8601;48.718;8.992;2023-08-24T07:19:46;20.90;99.90
16970;DHT22;8601;48.718;8.992;2023-08-24T07:22:13;21.10;99.90
16970;DHT22;8601;48.718;8.992;2023-08-24T07:24:40;21.20;99.90
16970;DHT22;8601;48.718;8.992;2023-08-24T07:27:07;21.30;99.90
16970;DHT22;8601;48.718;8.992;2023-08-24T07:29:36;21.30;99.90
16970;DHT22;8601;48.718;8.992;2023-08-24T07:32:03;21.40;99.90
16970;DHT22;8601;48.718;8.992;2023-08-24T07:34:30;21.50;99.90
16970;DHT22;8601;48.718;8.992;2023-08-24T07:36:57;21.60;99.90
16970;DHT22;8601;48.718;8.992;2023-08-24T07:39:24;21.70;99.90
16970;DHT22;8601;48.718;8.992;2023-08-24T07:41:51;21.80;99.90
16970;DHT22;8601;48.718;8.992;2023-08-24T07:44:18;21.80;99.90
16970;DHT22;8601;48.718;8.992;2023-08-24T07:46:47;21.90;99.90
16970;DHT22;8601;48.718;8.992;2023-08-24T07:49:13;22.00;99.90
16970;DHT22;8601;48.718;8.992;2023-08-24T07:51:40;22.10;99.90
16970;DHT22;8601;48.718;8.992;2023-08-24T07:54:08;22.20;99.90
16970;DHT22;8601;48.718;8.992;2023-08-24T07:56:35;22.30;99.90
16970;DHT22;8601;48.718;8.992;2023-08-24T07:59:03;22.50;99.90
16970;DHT22;8601;48.718;8.992;2023-08-24T08:01:29;22.60;99.90
16970;DHT22;8601;48.718;8.992;2023-08-24T08:03:58;22.80;99.90
16970;DHT22;8601;48.718;8.992;2023-08-24T08:06:25;22.90;99.90
16970;DHT22;8601;48.718;8.992;2023-08-24T08:08:53;23.10;99.90
16970;DHT22;8601;48.718;8.992;2023-08-24T08:11:20;23.30;99.90
16970;DHT22;8601;48.718;8.992;2023-08-24T08:13:47;23.40;99.90
16970;DHT22;8601;48.718;8.992;2023-08-24T08:16:14;23.60;99.90
16970;DHT22;8601;48.718;8.992;2023-08-24T08:18:41;23.70;99.90
16970;DHT22;8601;48.718;8.992;2023-08-24T08:21:15;23.80;99.90
16970;DHT22;8601;48.718;8.992;2023-08-24T08:23:44;23.90;99.90
16970;DHT22;8601;48.718;8.992;2023-08-24T08:26:12;24.00;99.90
16970;DHT22;8601;48.718;8.992;2023-08-24T08:28:40;24.20;99.90
16970;DHT22;8601;48.718;8.992;2023-08-24T08:31:07;24.40;99.30
16970;DHT22;8601;48.718;8.992;2023-08-24T08:33:34;24.60;98.70
16970;DHT22;8601;48.718;8.992;2023-08-24T08:36:01;24.70;97.90
16970;DHT22;8601;48.718;8.992;2023-08-24T08:38:30;24.80;98.50
16970;DHT22;8601;48.718;8.992;2023-08-24T08:41:01;25.10;97.10
16970;DHT22;8601;48.718;8.992;2023-08-24T08:43:29;25.30;97.30
16970;DHT22;8601;48.718;8.992;2023-08-24T08:45:58;25.40;96.70
16970;DHT22;8601;48.718;8.992;2023-08-24T08:48:26;25.40;95.90
16970;DHT22;8601;48.718;8.992;2023-08-24T08:50:55;25.50;95.70
16970;DHT22;8601;48.718;8.992;2023-08-24T08:53:23;25.70;95.60
16970;DHT22;8601;48.718;8.992;2023-08-24T08:55:52;25.90;94.60
16970;DHT22;8601;48.718;8.992;2023-08-24T08:58:20;26.00;95.20
16970;DHT22;8601;48.718;8.992;2023-08-24T09:00:47;26.20;95.00
16970;DHT22;8601;48.718;8.992;2023-08-24T09:03:17;26.60;92.70
16970;DHT22;8601;48.718;8.992;2023-08-24T09:05:44;26.80;93.00
16970;DHT22;8601;48.718;8.992;2023-08-24T09:08:13;27.00;93.00
16970;DHT22;8601;48.718;8.992;2023-08-24T09:10:40;27.20;92.20
16970;DHT22;8601;48.718;8.992;2023-08-24T09:13:09;27.50;92.10
16970;DHT22;8601;48.718;8.992;2023-08-24T09:15:36;27.60;91.40
16970;DHT22;8601;48.718;8.992;2023-08-24T09:18:03;28.00;90.80
16970;DHT22;8601;48.718;8.992;2023-08-24T09:20:30;28.30;90.50
16970;DHT22;8601;48.718;8.992;2023-08-24T09:22:58;28.50;88.50
16970;DHT22;8601;48.718;8.992;2023-08-24T09:25:25;28.60;88.80
16970;DHT22;8601;48.718;8.992;2023-08-24T09:27:58;28.80;86.70
16970;DHT22;8601;48.718;8.992;2023-08-24T09:30:30;29.00;86.60
16970;DHT22;8601;48.718;8.992;2023-08-24T09:33:02;29.30;84.20
16970;DHT22;8601;48.718;8.992;2023-08-24T09:35:35;29.50;84.20
16970;DHT22;8601;48.718;8.992;2023-08-24T09:38:15;29.70;82.40
16970;DHT22;8601;48.718;8.992;2023-08-24T09:40:45;30.00;80.20
16970;DHT22;8601;48.718;8.992;2023-08-24T09:43:13;30.20;77.80
16970;DHT22;8601;48.718;8.992;2023-08-24T09:45:49;30.30;80.50
16970;DHT22;8601;48.718;8.992;2023-08-24T09:48:16;30.50;76.70
16970;DHT22;8601;48.718;8.992;2023-08-24T09:50:44;30.60;78.60
16970;DHT22;8601;48.718;8.992;2023-08-24T09:53:16;30.80;76.10
16970;DHT22;8601;48.718;8.992;2023-08-24T09:55:44;30.80;75.70
16970;DHT22;8601;48.718;8.992;2023-08-24T09:58:14;30.90;73.60
16970;DHT22;8601;48.718;8.992;2023-08-24T10:00:41;31.10;73.00
16970;DHT22;8601;48.718;8.992;2023-08-24T10:03:14;31.00;71.60
16970;DHT22;8601;48.718;8.992;2023-08-24T10:05:44;30.90;73.60
16970;DHT22;8601;48.718;8.992;2023-08-24T10:08:13;31.10;73.10
16970;DHT22;8601;48.718;8.992;2023-08-24T10:10:42;31.30;73.90
16970;DHT22;8601;48.718;8.992;2023-08-24T10:13:17;31.40;72.70
16970;DHT22;8601;48.718;8.992;2023-08-24T10:15:46;31.40;74.00
16970;DHT22;8601;48.718;8.992;2023-08-24T10:18:15;31.60;70.60
16970;DHT22;8601;48.718;8.992;2023-08-24T10:20:43;31.70;69.50
16970;DHT22;8601;48.718;8.992;2023-08-24T10:23:11;31.60;71.80
16970;DHT22;8601;48.718;8.992;2023-08-24T10:25:40;31.80;71.90
16970;DHT22;8601;48.718;8.992;2023-08-24T10:28:07;32.00;68.90
16970;DHT22;8601;48.718;8.992;2023-08-24T10:30:36;32.00;71.50
16970;DHT22;8601;48.718;8.992;2023-08-24T10:33:04;32.10;68.80
16970;DHT22;8601;48.718;8.992;2023-08-24T10:35:33;32.10;69.50
16970;DHT22;8601;48.718;8.992;2023-08-24T10:38:00;32.10;67.20
16970;DHT22;8601;48.718;8.992;2023-08-24T10:40:34;32.00;68.10
16970;DHT22;8601;48.718;8.992;2023-08-24T10:43:04;32.00;67.40
16970;DHT22;8601;48.718;8.992;2023-08-24T10:45:54;31.90;66.20
16970;DHT22;8601;48.718;8.992;2023-08-24T10:48:22;31.60;67.70
16970;DHT22;8601;48.718;8.992;2023-08-24T10:51:18;31.60;68.10
16970;DHT22;8601;48.718;8.992;2023-08-24T10:53:47;31.80;68.60
16970;DHT22;8601;48.718;8.992;2023-08-24T10:56:16;31.80;67.50
16970;DHT22;8601;48.718;8.992;2023-08-24T10:58:43;32.00;69.60
16970;DHT22;8601;48.718;8.992;2023-08-24T11:01:14;32.20;69.30
16970;DHT22;8601;48.718;8.992;2023-08-24T11:03:49;32.40;68.10
16970;DHT22;8601;48.718;8.992;2023-08-24T11:06:21;32.60;67.20
16970;DHT22;8601;48.718;8.992;2023-08-24T11:08:49;32.60;66.20
16970;DHT22;8601;48.718;8.992;2023-08-24T11:11:19;32.70;65.10
16970;DHT22;8601;48.718;8.992;2023-08-24T11:14:15;32.80;67.30
16970;DHT22;8601;48.718;8.992;2023-08-24T11:16:45;32.70;65.30
16970;DHT22;8601;48.718;8.992;2023-08-24T11:19:13;32.60;66.40
16970;DHT22;8601;48.718;8.992;2023-08-24T11:21:43;32.60;65.90
16970;DHT22;8601;48.718;8.992;2023-08-24T11:24:12;32.70;66.70
16970;DHT22;8601;48.718;8.992;2023-08-24T11:26:43;32.80;65.40
16970;DHT22;8601;48.718;8.992;2023-08-24T11:29:10;33.10;65.00
16970;DHT22;8601;48.718;8.992;2023-08-24T11:31:38;33.20;64.50
16970;DHT22;8601;48.718;8.992;2023-08-24T11:34:06;33.30;64.40
16970;DHT22;8601;48.718;8.992;2023-08-24T11:36:43;33.20;62.90
16970;DHT22;8601;48.718;8.992;2023-08-24T11:39:15;33.20;63.20
16970;DHT22;8601;48.718;8.992;2023-08-24T11:41:43;33.40;64.80
16970;DHT22;8601;48.718;8.992;2023-08-24T11:44:11;33.60;62.80
16970;DHT22;8601;48.718;8.992;2023-08-24T11:46:38;33.70;63.10
16970;DHT22;8601;48.718;8.992;2023-08-24T11:49:05;33.70;61.90
16970;DHT22;8601;48.718;8.992;2023-08-24T11:51:32;33.60;61.30
16970;DHT22;8601;48.718;8.992;2023-08-24T11:54:02;33.50;61.40
16970;DHT22;8601;48.718;8.992;2023-08-24T11:56:29;33.40;62.00
16970;DHT22;8601;48.718;8.992;2023-08-24T11:58:56;33.40;63.70
16970;DHT22;8601;48.718;8.992;2023-08-24T12:01:24;32.80;62.20
16970;DHT22;8601;48.718;8.992;2023-08-24T12:03:52;32.80;64.20
16970;DHT22;8601;48.718;8.992;2023-08-24T12:06:19;32.80;62.70
16970;DHT22;8601;48.718;8.992;2023-08-24T12:08:47;32.70;65.10
16970;DHT22;8601;48.718;8.992;2023-08-24T12:11:20;32.80;65.40
16970;DHT22;8601;48.718;8.992;2023-08-24T12:13:52;32.70;64.60
16970;DHT22;8601;48.718;8.992;2023-08-24T12:16:20;32.60;65.50
16970;DHT22;8601;48.718;8.992;2023-08-24T12:18:49;32.60;64.50
16970;DHT22;8601;48.718;8.992;2023-08-24T12:21:16;32.80;66.80
16970;DHT22;8601;48.718;8.992;2023-08-24T12:23:45;33.10;65.10
16970;DHT22;8601;48.718;8.992;2023-08-24T12:26:23;33.30;62.00
16970;DHT22;8601;48.718;8.992;2023-08-24T12:28:50;33.30;63.50
16970;DHT22;8601;48.718;8.992;2023-08-24T12:31:18;33.50;61.60
16970;DHT22;8601;48.718;8.992;2023-08-24T12:33:45;33.60;62.10
16970;DHT22;8601;48.718;8.992;2023-08-24T12:36:12;33.70;61.20
16970;DHT22;8601;48.718;8.992;2023-08-24T12:38:39;33.90;60.90
16970;DHT22;8601;48.718;8.992;2023-08-24T12:41:08;33.70;60.80
16970;DHT22;8601;48.718;8.992;2023-08-24T12:43:36;33.70;62.60
16970;DHT22;8601;48.718;8.992;2023-08-24T12:46:04;33.80;62.30
16970;DHT22;8601;48.718;8.992;2023-08-24T12:48:31;33.70;62.00
16970;DHT22;8601;48.718;8.992;2023-08-24T12:50:57;33.60;61.40
16970;DHT22;8601;48.718;8.992;2023-08-24T12:53:24;33.60;61.70
16970;DHT22;8601;48.718;8.992;2023-08-24T12:55:51;33.60;62.00
16970;DHT22;8601;48.718;8.992;2023-08-24T12:58:18;33.70;62.30
16970;DHT22;8601;48.718;8.992;2023-08-24T13:00:47;33.90;61.20
16970;DHT22;8601;48.718;8.992;2023-08-24T13:03:14;34.00;61.00
16970;DHT22;8601;48.718;8.992;2023-08-24T13:05:41;34.30;58.50
16970;DHT22;8601;48.718;8.992;2023-08-24T13:08:08;34.50;58.60
16970;DHT22;8601;48.718;8.992;2023-08-24T13:10:35;34.50;57.10
16970;DHT22;8601;48.718;8.992;2023-08-24T13:13:02;34.60;58.40
16970;DHT22;8601;48.718;8.992;2023-08-24T13:15:29;34.30;58.20
16970;DHT22;8601;48.718;8.992;2023-08-24T13:17:58;34.20;57.20
16970;DHT22;8601;48.718;8.992;2023-08-24T13:20:25;34.30;57.80
16970;DHT22;8601;48.718;8.992;2023-08-24T13:22:52;34.30;57.30
16970;DHT22;8601;48.718;8.992;2023-08-24T13:25:19;34.30;57.80
16970;DHT22;8601;48.718;8.992;2023-08-24T13:27:46;34.30;57.10
16970;DHT22;8601;48.718;8.992;2023-08-24T13:30:13;34.50;58.20
16970;DHT22;8601;48.718;8.992;2023-08-24T13:32:40;34.80;53.80
16970;DHT22;8601;48.718;8.992;2023-08-24T13:35:09;34.70;54.60
16970;DHT22;8601;48.718;8.992;2023-08-24T13:37:36;34.70;53.60
16970;DHT22;8601;48.718;8.992;2023-08-24T13:40:03;34.50;53.20
16970;DHT22;8601;48.718;8.992;2023-08-24T13:42:31;34.20;53.90
16970;DHT22;8601;48.718;8.992;2023-08-24T13:44:58;33.90;52.50
16970;DHT22;8601;48.718;8.992;2023-08-24T13:47:24;33.80;52.30
16970;DHT22;8601;48.718;8.992;2023-08-24T13:49:51;33.60;53.20
16970;DHT22;8601;48.718;8.992;2023-08-24T13:52:20;33.70;53.90
16970;DHT22;8601;48.718;8.992;2023-08-24T13:54:47;33.80;53.40
16970;DHT22;8601;48.718;8.992;2023-08-24T13:57:14;33.80;53.50
16970;DHT22;8601;48.718;8.992;2023-08-24T13:59:41;33.80;54.40
16970;DHT22;8601;48.718;8.992;2023-08-24T14:02:08;33.90;54.90
16970;DHT22;8601;48.718;8.992;2023-08-24T14:04:37;34.10;55.90
16970;DHT22;8601;48.718;8.992;2023-08-24T14:07:04;33.90;55.50
16970;DHT22;8601;48.718;8.992;2023-08-24T14:09:32;33.70;56.60
16970;DHT22;8601;48.718;8.992;2023-08-24T14:11:59;33.30;56.90
16970;DHT22;8601;48.718;8.992;2023-08-24T14:14:26;33.20;58.40
16970;DHT22;8601;48.718;8.992;2023-08-24T14:16:56;33.10;58.70
16970;DHT22;8601;48.718;8.992;2023-08-24T14:19:23;33.10;58.70
16970;DHT22;8601;48.718;8.992;2023-08-24T14:21:51;32.80;58.70
16970;DHT22;8601;48.718;8.992;2023-08-24T14:24:18;32.60;59.30
16970;DHT22;8601;48.718;8.992;2023-08-24T14:26:46;32.50;60.00
16970;DHT22;8601;48.718;8.992;2023-08-24T14:29:13;32.20;62.10
16970;DHT22;8601;48.718;8.992;2023-08-24T14:31:40;32.10;62.00
16970;DHT22;8601;48.718;8.992;2023-08-24T14:34:07;32.00;62.00
16970;DHT22;8601;48.718;8.992;2023-08-24T14:36:34;31.90;61.90
16970;DHT22;8601;48.718;8.992;2023-08-24T14:39:02;31.90;63.20
16970;DHT22;8601;48.718;8.992;2023-08-24T14:41:30;31.80;64.50
16970;DHT22;8601;48.718;8.992;2023-08-24T14:43:58;31.70;65.30
16970;DHT22;8601;48.718;8.992;2023-08-24T14:46:25;31.60;64.80
16970;DHT22;8601;48.718;8.992;2023-08-24T14:48:52;31.40;67.20
16970;DHT22;8601;48.718;8.992;2023-08-24T14:51:19;31.30;71.10
16970;DHT22;8601;48.718;8.992;2023-08-24T14:53:45;30.60;75.10
16970;DHT22;8601;48.718;8.992;2023-08-24T14:56:12;29.70;81.10
16970;DHT22;8601;48.718;8.992;2023-08-24T14:58:39;29.10;84.70
16970;DHT22;8601;48.718;8.992;2023-08-24T15:01:08;28.40;88.00
16970;DHT22;8601;48.718;8.992;2023-08-24T15:03:35;27.90;91.00
16970;DHT22;8601;48.718;8.992;2023-08-24T15:06:04;27.50;92.60
16970;DHT22;8601;48.718;8.992;2023-08-24T15:08:32;27.10;93.50
16970;DHT22;8601;48.718;8.992;2023-08-24T15:11:00;26.80;94.00
16970;DHT22;8601;48.718;8.992;2023-08-24T15:13:29;26.50;94.60
16970;DHT22;8601;48.718;8.992;2023-08-24T15:15:57;26.40;95.60
16970;DHT22;8601;48.718;8.992;2023-08-24T15:18:26;26.20;96.60
16970;DHT22;8601;48.718;8.992;2023-08-24T15:20:53;26.20;97.50
16970;DHT22;8601;48.718;8.992;2023-08-24T15:23:24;26.20;98.10
16970;DHT22;8601;48.718;8.992;2023-08-24T15:25:52;26.10;98.30
16970;DHT22;8601;48.718;8.992;2023-08-24T15:28:19;26.00;98.30
16970;DHT22;8601;48.718;8.992;2023-08-24T15:30:46;25.90;98.00
16970;DHT22;8601;48.718;8.992;2023-08-24T15:33:13;25.80;98.10
16970;DHT22;8601;48.718;8.992;2023-08-24T15:35:42;25.80;98.30
16970;DHT22;8601;48.718;8.992;2023-08-24T15:38:09;25.80;98.80
16970;DHT22;8601;48.718;8.992;2023-08-24T15:40:37;25.70;98.80
16970;DHT22;8601;48.718;8.992;2023-08-24T15:43:05;25.60;99.00
16970;DHT22;8601;48.718;8.992;2023-08-24T15:45:33;25.50;98.90
16970;DHT22;8601;48.718;8.992;2023-08-24T15:48:01;25.30;99.50
16970;DHT22;8601;48.718;8.992;2023-08-24T15:50:28;25.20;99.90